createdAt,value
2022-08-23T00:02:28.911Z,99.90
2022-08-23T00:05:08.013Z,99.90
2022-08-23T00:07:39.012Z,99.90
2022-08-23T00:10:14.128Z,99.90
2022-08-23T00:12:45.776Z,99.90
2022-08-23T00:15:15.579Z,99.90
2022-08-23T00:17:51.048Z,99.90
2022-08-23T00:20:20.651Z,99.90
2022-08-23T00:22:47.858Z,99.90
2022-08-23T00:25:26.375Z,99.90
2022-08-23T00:27:59.925Z,99.90
2022-08-23T00:30:27.491Z,99.90
2022-08-23T00:32:58.113Z,99.90
2022-08-23T00:35:31.867Z,99.90
2022-08-23T00:38:31.765Z,99.90
2022-08-23T00:40:49.446Z,99.90
2022-08-23T00:43:38.350Z,99.90
2022-08-23T00:46:59.929Z,99.90
2022-08-23T00:49:27.174Z,99.90
2022-08-23T00:52:03.116Z,99.90
2022-08-23T00:54:35.440Z,99.90
2022-08-23T00:57:06.605Z,99.90
2022-08-23T00:59:33.603Z,99.90
2022-08-23T01:02:01.710Z,99.90
2022-08-23T01:04:34.096Z,99.90
2022-08-23T01:07:17.099Z,99.90
2022-08-23T01:09:46.948Z,99.90
2022-08-23T01:12:33.130Z,99.90
2022-08-23T01:15:11.452Z,99.90
2022-08-23T01:17:43.784Z,99.90
2022-08-23T01:20:17.611Z,99.90
2022-08-23T01:22:53.051Z,99.90
2022-08-23T01:25:22.698Z,99.90
2022-08-23T01:27:50.629Z,99.90
2022-08-23T01:30:25.621Z,99.90
2022-08-23T01:32:59.570Z,99.90
2022-08-23T01:35:45.181Z,99.90
2022-08-23T01:38:13.199Z,99.90
2022-08-23T01:40:41.088Z,99.90
2022-08-23T01:43:09.100Z,99.90
2022-08-23T01:45:37.029Z,99.90
2022-08-23T01:48:09.865Z,99.90
2022-08-23T01:53:05.810Z,99.90
2022-08-23T01:55:36.384Z,99.90
2022-08-23T01:58:05.856Z,99.90
2022-08-23T02:00:36.964Z,99.90
2022-08-23T02:03:08.501Z,99.90
2022-08-23T02:05:37.244Z,99.90
2022-08-23T02:08:25.080Z,99.90
2022-08-23T02:11:23.474Z,99.90
2022-08-23T02:13:54.503Z,99.90
2022-08-23T02:16:28.178Z,99.90
2022-08-23T02:18:56.518Z,99.90
2022-08-23T02:21:25.099Z,99.90
2022-08-23T02:26:47.741Z,99.90
2022-08-23T02:29:24.914Z,99.90
2022-08-23T02:31:51.814Z,99.90
2022-08-23T02:34:37.176Z,99.90
2022-08-23T02:37:04.677Z,99.90
2022-08-23T02:39:31.700Z,99.90
2022-08-23T02:41:58.502Z,99.90
2022-08-23T02:44:26.253Z,99.90
2022-08-23T02:46:56.623Z,99.90
2022-08-23T02:49:25.996Z,99.90
2022-08-23T02:51:53.950Z,99.90
2022-08-23T02:54:23.229Z,99.90
2022-08-23T02:56:50.047Z,99.90
2022-08-23T02:59:17.551Z,99.90
2022-08-23T03:01:46.038Z,99.90
2022-08-23T03:04:16.399Z,99.90
2022-08-23T03:06:43.740Z,99.90
2022-08-23T03:09:11.448Z,99.90
2022-08-23T03:11:45.863Z,99.90
2022-08-23T03:14:13.043Z,99.90
2022-08-23T03:16:40.905Z,99.90
2022-08-23T03:19:10.826Z,99.90
2022-08-23T03:21:38.500Z,99.90
2022-08-23T03:24:12.127Z,99.90
2022-08-23T03:26:42.897Z,99.90
2022-08-23T03:29:13.724Z,99.90
2022-08-23T03:31:45.666Z,99.90
2022-08-23T03:34:12.429Z,99.90
2022-08-23T03:36:39.692Z,99.90
2022-08-23T03:39:07.290Z,99.90
2022-08-23T03:41:34.660Z,99.90
2022-08-23T03:44:01.494Z,99.90
2022-08-23T03:46:34.249Z,99.90
2022-08-23T03:51:43.472Z,99.90
2022-08-23T03:54:10.944Z,99.90
2022-08-23T03:56:49.501Z,99.90
2022-08-23T03:59:16.755Z,99.90
2022-08-23T04:01:44.267Z,99.90
2022-08-23T04:04:11.289Z,99.90
2022-08-23T04:06:38.820Z,99.90
2022-08-23T04:09:07.879Z,99.90
2022-08-23T04:11:35.086Z,99.90
2022-08-23T04:14:02.099Z,99.90
2022-08-23T04:16:30.701Z,99.90
2022-08-23T04:18:57.915Z,99.90
2022-08-23T04:21:35.340Z,99.90
2022-08-23T04:24:02.288Z,99.90
2022-08-23T04:26:38.184Z,99.90
2022-08-23T04:29:05.400Z,99.90
2022-08-23T04:31:34.710Z,99.90
2022-08-23T04:34:02.283Z,99.90
2022-08-23T04:36:34.905Z,99.90
2022-08-23T04:39:01.857Z,99.90
2022-08-23T04:41:47.169Z,99.90
2022-08-23T04:44:17.621Z,99.90
2022-08-23T04:46:46.997Z,99.90
2022-08-23T04:49:20.000Z,99.90
2022-08-23T04:51:53.000Z,99.90
2022-08-23T04:54:21.343Z,99.90
2022-08-23T04:56:50.984Z,99.90
2022-08-23T04:59:22.172Z,99.90
2022-08-23T05:01:52.075Z,99.90
2022-08-23T05:04:22.367Z,99.90
2022-08-23T05:06:51.324Z,99.90
2022-08-23T05:09:20.673Z,99.90
2022-08-23T05:11:48.092Z,99.90
2022-08-23T05:14:21.457Z,99.90
2022-08-23T05:16:54.366Z,99.90
2022-08-23T05:19:21.724Z,99.90
2022-08-23T05:21:56.378Z,99.90
2022-08-23T05:24:24.075Z,99.90
2022-08-23T05:26:53.503Z,99.90
2022-08-23T05:29:23.472Z,99.90
2022-08-23T05:31:50.451Z,99.90
2022-08-23T05:34:22.597Z,99.90
2022-08-23T05:36:56.205Z,99.90
2022-08-23T05:39:26.363Z,99.90
2022-08-23T05:42:03.259Z,99.90
2022-08-23T05:44:30.251Z,99.90
2022-08-23T05:47:04.712Z,99.90
2022-08-23T05:49:39.981Z,99.90
2022-08-23T05:52:12.974Z,99.90
2022-08-23T05:54:40.326Z,99.90
2022-08-23T05:57:07.208Z,99.90
2022-08-23T05:59:35.138Z,99.90
2022-08-23T06:02:02.356Z,99.90
2022-08-23T06:04:29.516Z,99.90
2022-08-23T06:06:59.407Z,99.90
2022-08-23T06:09:28.820Z,99.90
2022-08-23T06:11:59.407Z,99.90
2022-08-23T06:14:29.034Z,99.90
2022-08-23T06:16:56.509Z,99.90
2022-08-23T06:19:24.059Z,99.90
2022-08-23T06:21:51.977Z,99.90
2022-08-23T06:24:25.703Z,99.90
2022-08-23T06:26:52.731Z,99.90
2022-08-23T06:29:22.902Z,99.90
2022-08-23T06:31:52.060Z,99.90
2022-08-23T06:34:19.133Z,99.90
2022-08-23T06:36:48.664Z,99.90
2022-08-23T06:39:20.910Z,99.90
2022-08-23T06:41:49.023Z,99.90
2022-08-23T06:44:17.457Z,99.90
2022-08-23T06:46:49.073Z,99.90
2022-08-23T06:49:16.505Z,99.90
2022-08-23T06:51:50.480Z,99.90
2022-08-23T06:54:22.249Z,99.90
2022-08-23T06:56:50.457Z,99.90
2022-08-23T06:59:18.809Z,99.90
2022-08-23T07:01:59.590Z,99.90
2022-08-23T07:04:30.054Z,99.90
2022-08-23T07:06:57.772Z,99.90
2022-08-23T07:09:25.331Z,99.90
2022-08-23T07:11:59.824Z,99.90
2022-08-23T07:14:27.883Z,99.90
2022-08-23T07:16:59.476Z,99.90
2022-08-23T07:19:31.426Z,99.90
2022-08-23T07:21:59.483Z,99.90
2022-08-23T07:24:30.804Z,99.90
2022-08-23T07:27:01.700Z,99.90
2022-08-23T07:29:31.689Z,99.90
2022-08-23T07:31:58.992Z,99.90
2022-08-23T07:34:32.043Z,99.90
2022-08-23T07:37:15.226Z,99.90
2022-08-23T07:39:42.934Z,99.90
2022-08-23T07:42:23.486Z,99.90
2022-08-23T07:44:57.602Z,99.90
2022-08-23T07:47:24.878Z,99.90
2022-08-23T07:49:51.931Z,99.90
2022-08-23T07:52:22.300Z,99.90
2022-08-23T07:54:58.142Z,99.90
2022-08-23T07:57:26.744Z,99.90
2022-08-23T07:59:53.693Z,99.90
2022-08-23T08:02:22.609Z,99.90
2022-08-23T08:04:49.619Z,99.90
2022-08-23T08:07:21.224Z,99.90
2022-08-23T08:09:48.343Z,99.90
2022-08-23T08:12:17.979Z,99.90
2022-08-23T08:14:45.291Z,99.90
2022-08-23T08:17:12.283Z,99.90
2022-08-23T08:19:39.082Z,99.90
2022-08-23T08:22:09.233Z,99.90
2022-08-23T08:24:39.702Z,99.90
2022-08-23T08:27:08.992Z,99.90
2022-08-23T08:29:38.533Z,99.90
2022-08-23T08:32:05.490Z,99.90
2022-08-23T08:34:35.552Z,99.90
2022-08-23T08:37:02.621Z,99.90
2022-08-23T08:39:34.740Z,99.90
2022-08-23T08:42:09.314Z,99.90
2022-08-23T08:44:57.864Z,99.90
2022-08-23T08:47:39.841Z,99.90
2022-08-23T08:50:24.169Z,99.90
2022-08-23T08:53:31.559Z,99.90
2022-08-23T08:56:32.986Z,99.90
2022-08-23T08:59:12.478Z,99.90
2022-08-23T09:01:40.083Z,99.90
2022-08-23T09:04:10.895Z,99.90
2022-08-23T09:06:58.962Z,99.90
2022-08-23T09:09:53.309Z,99.90
2022-08-23T09:12:45.612Z,99.90
2022-08-23T09:15:33.495Z,99.90
2022-08-23T09:18:14.138Z,99.90
2022-08-23T09:20:43.205Z,99.90
2022-08-23T09:23:17.247Z,99.90
2022-08-23T09:26:03.572Z,99.90
2022-08-23T09:28:36.748Z,99.90
2022-08-23T09:31:04.453Z,99.90
2022-08-23T09:33:46.146Z,99.90
2022-08-23T09:36:22.492Z,99.90
2022-08-23T09:38:53.105Z,99.90
2022-08-23T09:41:24.178Z,99.90
2022-08-23T09:43:54.531Z,99.90
2022-08-23T09:46:43.510Z,99.90
2022-08-23T09:49:26.847Z,99.90
2022-08-23T09:51:59.173Z,99.90
2022-08-23T09:54:47.431Z,99.90
2022-08-23T09:57:24.681Z,99.90
2022-08-23T09:59:51.866Z,99.90
2022-08-23T10:02:22.016Z,99.90
2022-08-23T10:05:18.545Z,99.90
2022-08-23T10:08:00.909Z,99.90
2022-08-23T10:10:50.875Z,99.90
2022-08-23T10:13:18.744Z,99.90
2022-08-23T10:16:20.364Z,99.90
2022-08-23T10:19:24.241Z,99.90
2022-08-23T10:21:57.422Z,99.90
2022-08-23T10:24:42.416Z,99.90
2022-08-23T10:27:55.405Z,99.90
2022-08-23T10:30:28.149Z,99.90
2022-08-23T10:32:55.150Z,99.90
2022-08-23T10:35:49.893Z,99.90
2022-08-23T10:38:41.512Z,99.90
2022-08-23T10:41:44.120Z,99.90
2022-08-23T10:44:22.911Z,99.90
2022-08-23T10:47:29.387Z,99.90
2022-08-23T10:50:03.569Z,99.90
2022-08-23T10:52:39.303Z,99.90
2022-08-23T10:55:17.247Z,99.90
2022-08-23T10:57:49.228Z,99.90
2022-08-23T11:00:22.631Z,99.90
2022-08-23T11:03:10.824Z,99.90
2022-08-23T11:05:41.213Z,99.90
2022-08-23T11:08:11.297Z,99.90
2022-08-23T11:10:38.006Z,99.90
2022-08-23T11:13:13.641Z,99.90
2022-08-23T11:15:45.497Z,99.90
2022-08-23T11:18:41.458Z,99.90
2022-08-23T11:21:10.160Z,99.90
2022-08-23T11:23:39.673Z,99.90
2022-08-23T11:26:26.678Z,99.90
2022-08-23T11:29:10.847Z,99.90
2022-08-23T11:31:51.531Z,99.90
2022-08-23T11:34:30.116Z,99.90
2022-08-23T11:37:19.994Z,99.90
2022-08-23T11:40:07.833Z,99.90
2022-08-23T11:42:37.967Z,99.90
2022-08-23T11:45:26.256Z,99.90
2022-08-23T11:48:14.895Z,99.90
2022-08-23T11:50:57.776Z,99.90
2022-08-23T11:53:45.990Z,99.90
2022-08-23T11:56:31.127Z,99.90
2022-08-23T11:59:23.911Z,99.90
2022-08-23T12:01:50.864Z,99.90
2022-08-23T12:04:37.702Z,99.90
2022-08-23T12:07:12.486Z,99.90
2022-08-23T12:09:42.612Z,99.90
2022-08-23T12:12:42.871Z,99.90
2022-08-23T12:15:16.695Z,99.90
2022-08-23T12:17:46.666Z,99.90
2022-08-23T12:20:30.221Z,99.90
2022-08-23T12:23:00.160Z,99.90
2022-08-23T12:25:40.790Z,99.90
2022-08-23T12:28:36.432Z,99.90
2022-08-23T12:31:15.762Z,99.90
2022-08-23T12:34:32.036Z,99.90
2022-08-23T12:37:12.875Z,99.90
2022-08-23T12:39:55.269Z,99.90
2022-08-23T12:42:41.668Z,99.90
2022-08-23T12:45:17.871Z,99.90
2022-08-23T12:47:57.637Z,99.90
2022-08-23T12:50:32.804Z,99.90
2022-08-23T12:53:10.421Z,99.90
2022-08-23T12:55:44.221Z,99.90
2022-08-23T12:58:12.291Z,99.90
2022-08-23T13:00:55.577Z,99.90
2022-08-23T13:03:36.338Z,99.90
2022-08-23T13:06:09.057Z,99.90
2022-08-23T13:08:48.059Z,99.90
2022-08-23T13:11:22.991Z,99.90
2022-08-23T13:13:55.532Z,99.90
2022-08-23T13:16:27.730Z,99.90
2022-08-23T13:19:10.392Z,99.90
2022-08-23T13:21:39.954Z,99.90
2022-08-23T13:25:24.676Z,99.90
2022-08-23T13:27:46.419Z,99.90
2022-08-23T13:30:13.426Z,99.90
2022-08-23T13:32:50.072Z,99.90
2022-08-23T13:35:44.499Z,99.90
2022-08-23T13:38:21.357Z,99.90
2022-08-23T13:41:10.661Z,99.90
2022-08-23T13:43:43.593Z,99.90
2022-08-23T13:46:15.608Z,99.90
2022-08-23T13:49:00.285Z,99.90
2022-08-23T13:51:31.724Z,99.90
2022-08-23T13:54:04.468Z,99.90
2022-08-23T13:56:53.317Z,99.90
2022-08-23T13:59:33.117Z,99.90
2022-08-23T14:02:11.275Z,99.90
2022-08-23T14:04:38.800Z,99.90
2022-08-23T14:07:09.330Z,99.90
2022-08-23T14:09:36.664Z,99.90
2022-08-23T14:12:12.073Z,99.90
2022-08-23T14:14:41.127Z,99.90
2022-08-23T14:17:16.948Z,99.90
2022-08-23T14:20:32.832Z,99.90
2022-08-23T14:22:42.691Z,99.90
2022-08-23T14:25:10.865Z,99.90
2022-08-23T14:27:43.476Z,99.90
2022-08-23T14:30:25.992Z,99.80
2022-08-23T14:32:57.738Z,99.90
2022-08-23T14:35:24.698Z,99.90
2022-08-23T14:38:03.794Z,99.90
2022-08-23T14:40:31.563Z,99.90
2022-08-23T14:43:01.902Z,99.90
2022-08-23T14:45:28.873Z,99.90
2022-08-23T14:47:55.718Z,99.00
2022-08-23T14:50:22.834Z,98.40
2022-08-23T14:52:53.042Z,97.10
2022-08-23T14:55:24.398Z,97.60
2022-08-23T14:57:55.038Z,97.80
2022-08-23T15:00:50.127Z,96.50
2022-08-23T15:03:21.102Z,96.40
2022-08-23T15:05:50.624Z,96.60
2022-08-23T15:08:17.809Z,94.70
2022-08-23T15:12:55.351Z,93.50
2022-08-23T15:13:35.523Z,92.20
2022-08-23T15:16:07.311Z,90.90
2022-08-23T15:18:37.039Z,90.00
2022-08-23T15:21:09.682Z,89.30
2022-08-23T15:23:36.498Z,88.90
2022-08-23T15:26:03.808Z,89.60
2022-08-23T15:28:33.095Z,90.40
2022-08-23T15:31:00.574Z,87.80
2022-08-23T15:33:30.750Z,86.40
2022-08-23T15:36:02.178Z,86.00
2022-08-23T15:38:32.160Z,86.50
2022-08-23T15:40:59.029Z,87.20
2022-08-23T15:43:34.045Z,85.60
2022-08-23T15:46:05.677Z,83.60
2022-08-23T15:48:44.545Z,83.10
2022-08-23T15:51:12.463Z,83.40
2022-08-23T15:53:40.197Z,83.30
2022-08-23T15:56:20.304Z,82.60
2022-08-23T15:58:52.620Z,81.20
2022-08-23T16:01:24.294Z,80.60
2022-08-23T16:03:54.427Z,80.00
2022-08-23T16:06:21.848Z,80.10
2022-08-23T16:08:52.243Z,76.70
2022-08-23T16:11:19.527Z,75.80
2022-08-23T16:13:47.824Z,73.40
2022-08-23T16:16:31.536Z,72.30
2022-08-23T16:19:00.723Z,73.00
2022-08-23T16:21:29.088Z,71.80
2022-08-23T16:23:59.443Z,73.60
2022-08-23T16:26:34.484Z,75.20
2022-08-23T16:29:08.400Z,72.60
2022-08-23T16:31:39.382Z,73.50
2022-08-23T16:34:10.369Z,72.80
2022-08-23T16:36:40.690Z,71.00
2022-08-23T16:39:08.868Z,70.20
2022-08-23T16:41:38.705Z,67.50
2022-08-23T16:44:06.791Z,69.30
2022-08-23T16:46:34.202Z,68.30
2022-08-23T16:49:01.208Z,68.00
2022-08-23T16:51:28.315Z,68.20
2022-08-23T16:54:06.003Z,68.70
2022-08-23T16:56:34.157Z,70.60
2022-08-23T16:59:13.480Z,70.40
2022-08-23T17:01:49.074Z,71.10
2022-08-23T17:04:20.643Z,72.90
2022-08-23T17:06:47.993Z,74.20
2022-08-23T17:09:14.905Z,75.00
2022-08-23T17:11:44.104Z,76.60
2022-08-23T17:14:15.104Z,78.50
2022-08-23T17:16:46.140Z,83.80
2022-08-23T17:19:14.136Z,88.30
2022-08-23T17:21:42.489Z,91.20
2022-08-23T17:24:12.269Z,93.00
2022-08-23T17:26:42.084Z,94.80
2022-08-23T17:29:09.615Z,96.40
2022-08-23T17:31:37.935Z,98.30
2022-08-23T17:34:06.926Z,99.60
2022-08-23T17:36:41.955Z,99.90
2022-08-23T17:39:19.224Z,99.90
2022-08-23T17:41:46.196Z,99.90
2022-08-23T17:44:13.828Z,99.90
2022-08-23T17:46:43.250Z,99.90
2022-08-23T17:49:11.034Z,99.90
2022-08-23T17:51:38.582Z,99.90
2022-08-23T17:54:08.067Z,99.90
2022-08-23T17:56:35.216Z,99.90
2022-08-23T17:59:02.273Z,99.90
2022-08-23T18:01:39.585Z,99.90
2022-08-23T18:04:07.619Z,99.90
2022-08-23T18:06:36.539Z,99.90
2022-08-23T18:09:06.856Z,99.90
2022-08-23T18:11:35.261Z,99.90
2022-08-23T18:14:02.481Z,99.90
2022-08-23T18:16:35.056Z,99.90
2022-08-23T18:19:04.463Z,99.90
2022-08-23T18:21:31.387Z,99.90
2022-08-23T18:23:59.089Z,99.90
2022-08-23T18:26:48.102Z,99.90
2022-08-23T18:29:16.342Z,99.90
2022-08-23T18:31:44.431Z,99.90
2022-08-23T18:34:12.478Z,99.90
2022-08-23T18:36:39.398Z,99.90
2022-08-23T18:39:09.658Z,99.90
2022-08-23T18:41:40.511Z,99.90
2022-08-23T18:44:07.651Z,99.90
2022-08-23T18:46:37.047Z,99.90
2022-08-23T18:49:04.749Z,99.90
2022-08-23T18:51:31.879Z,99.90
2022-08-23T18:53:59.248Z,99.90
2022-08-23T18:56:26.217Z,99.90
2022-08-23T18:58:53.241Z,99.90
2022-08-23T19:01:25.066Z,99.90
2022-08-23T19:03:53.223Z,99.90
2022-08-23T19:06:27.433Z,99.90
2022-08-23T19:08:57.531Z,99.90
2022-08-23T19:11:24.753Z,99.90
2022-08-23T19:13:51.514Z,99.90
2022-08-23T19:16:21.519Z,99.90
2022-08-23T19:18:50.412Z,99.90
2022-08-23T19:21:21.847Z,99.90
2022-08-23T19:23:50.321Z,99.90
2022-08-23T19:26:19.809Z,99.90
2022-08-23T19:28:47.236Z,99.90
2022-08-23T19:31:14.456Z,99.90
2022-08-23T19:33:44.147Z,99.90
2022-08-23T19:36:23.961Z,99.90
2022-08-23T19:38:57.957Z,99.90
2022-08-23T19:41:24.765Z,99.90
2022-08-23T19:43:52.473Z,99.90
2022-08-23T19:46:19.468Z,99.90
2022-08-23T19:48:47.480Z,99.90
2022-08-23T19:51:16.346Z,99.90
2022-08-23T19:54:03.621Z,99.90
2022-08-23T19:56:39.607Z,99.90
2022-08-23T19:59:09.574Z,99.90
2022-08-23T20:01:37.045Z,99.90
2022-08-23T20:04:05.284Z,99.90
2022-08-23T20:06:35.963Z,99.90
2022-08-23T20:09:05.051Z,99.90
2022-08-23T20:11:32.595Z,99.90
2022-08-23T20:14:00.736Z,99.90
2022-08-23T20:16:29.360Z,99.90
2022-08-23T20:18:56.277Z,99.90
2022-08-23T20:21:24.151Z,99.90
2022-08-23T20:24:03.928Z,99.90
2022-08-23T20:26:40.678Z,99.90
2022-08-23T20:29:11.579Z,99.90
2022-08-23T20:31:49.806Z,99.90
2022-08-23T20:34:17.501Z,99.90
2022-08-23T20:36:44.987Z,99.90
2022-08-23T20:39:12.143Z,99.90
2022-08-23T20:41:40.417Z,99.90
2022-08-23T20:44:08.877Z,99.90
2022-08-23T20:46:36.345Z,99.90
2022-08-23T20:49:04.602Z,99.90
2022-08-23T20:51:31.946Z,99.90
2022-08-23T20:54:05.017Z,99.90
2022-08-23T20:56:35.773Z,99.90
2022-08-23T20:59:07.204Z,99.90
2022-08-23T21:01:35.049Z,99.90
2022-08-23T21:04:02.260Z,99.90
2022-08-23T21:06:40.206Z,99.90
2022-08-23T21:09:16.979Z,99.90
2022-08-23T21:11:45.727Z,99.90
2022-08-23T21:14:15.238Z,99.90
2022-08-23T21:16:43.607Z,99.90
2022-08-23T21:19:10.443Z,99.90
2022-08-23T21:21:38.842Z,99.90
2022-08-23T21:24:11.762Z,99.90
2022-08-23T21:26:41.581Z,99.90
2022-08-23T21:29:09.572Z,99.90
2022-08-23T21:31:37.609Z,99.90
2022-08-23T21:34:07.497Z,99.90
2022-08-23T21:36:35.129Z,99.90
2022-08-23T21:39:02.255Z,99.90
2022-08-23T21:41:49.565Z,99.90
2022-08-23T21:44:19.214Z,99.90
2022-08-23T21:46:47.796Z,99.90
2022-08-23T21:49:18.800Z,99.90
2022-08-23T21:51:46.126Z,99.90
2022-08-23T21:54:13.885Z,99.90
2022-08-23T21:56:41.747Z,99.90
2022-08-23T21:59:10.826Z,99.90
2022-08-23T22:01:40.429Z,99.90
2022-08-23T22:04:10.109Z,99.90
2022-08-23T22:06:41.143Z,99.90
2022-08-23T22:09:10.338Z,99.90
2022-08-23T22:11:41.746Z,99.90
2022-08-23T22:14:15.712Z,99.90
2022-08-23T22:16:46.204Z,99.90
2022-08-23T22:19:15.369Z,99.90
2022-08-23T22:21:50.767Z,99.90
2022-08-23T22:24:20.078Z,99.90
2022-08-23T22:26:54.606Z,99.90
2022-08-23T22:29:24.836Z,99.90
2022-08-23T22:31:54.322Z,99.90
2022-08-23T22:34:21.405Z,99.90
2022-08-23T22:36:52.168Z,99.90
2022-08-23T22:39:19.468Z,99.90
2022-08-23T22:41:50.338Z,99.90
2022-08-23T22:44:17.783Z,99.90
2022-08-23T22:46:44.594Z,99.90
2022-08-23T22:49:11.633Z,99.90
2022-08-23T22:51:44.023Z,99.90
2022-08-23T22:54:12.077Z,99.90
2022-08-23T22:56:45.160Z,99.90
2022-08-23T22:59:13.289Z,99.90
2022-08-23T23:01:52.200Z,99.90
2022-08-23T23:04:21.917Z,99.90
2022-08-23T23:06:49.928Z,99.90
2022-08-23T23:09:17.093Z,99.90
2022-08-23T23:11:45.926Z,99.90
2022-08-23T23:14:14.872Z,99.90
2022-08-23T23:16:42.343Z,99.90
2022-08-23T23:19:28.124Z,99.90
2022-08-23T23:22:04.192Z,99.90
2022-08-23T23:24:40.203Z,99.90
2022-08-23T23:27:07.964Z,99.90
2022-08-23T23:29:38.516Z,99.90
2022-08-23T23:32:06.272Z,99.90
2022-08-23T23:34:37.989Z,99.90
2022-08-23T23:37:05.162Z,99.90
2022-08-23T23:39:34.644Z,99.90
2022-08-23T23:42:04.246Z,99.90
2022-08-23T23:44:31.947Z,99.90
2022-08-23T23:47:02.652Z,99.90
2022-08-23T23:49:32.303Z,99.90
2022-08-23T23:52:04.467Z,99.90
2022-08-23T23:54:31.906Z,99.90
2022-08-23T23:57:06.938Z,99.90
2022-08-23T23:59:34.089Z,99.90
